Mc Cabe, Montana
Current Conditions -  °F | °C
As of 12:02 PM on Wednesday 26 Nov 2014 (Local Time) from KOLF Reporting Station
Overcast Overcast  
Wind Chill:   Ceiling: 1400
Heat Index: 20°   Visibility: 10mi
Dew Point: 13°   Wind: 10mph
Humidity: 74%   Direction: 80°E
Pressure: 30.33"   Gusts: NA
Location:  48.2801°N, 104.9441°W
Report Text: KOLF 261902Z AUTO 08009KT 10SM BKN014 OVC023 M07/M11 A3033 RMK AO2 T10671106
Loading
Personal Weather Stations






























Interactive Weather Map New forecast layout! Learn more

10-Day Weather Forecast

Advertisements
Track Severe Weather on mobile